Soundguardian — WDI8675 — position and weather

sailwx.info

Track history (hours):
 
Tides and Currents Weather Stations Pressure Air Temp Water Temp Dewpoint Dewpoint Depression Visibility Wind Speed Wind Dir Waves Ship Positions

Soundguardian

Owner: King County Environmental Laboratory, Seattle, WA. More information available from US FCC via Universal Licensing System and Coast Guard Vessel Documentation Center.

Last reported at 2018-Jan-08 22:31 UTC. Time now 2018-Jan-18 00:06 UTC.
Position N 47°39' W 122°22'.
Warning: this ship's position is 9 days out of date.

Length 13 m; draft 1 m.

Type: Other ship. MMSI: 367741020.

Date/timePositionNaut miles runAvg speedWind from/ knotsBaromVisibWave heightAir tempDewpointWater temp
2018-Jan-08 22:31N 47°39' W 122°22'0 0.0
2018-Jan-08 22:30N 47°39' W 122°22'1 2.2
2018-Jan-08 22:00N 47°40' W 122°23'2 3.9
2018-Jan-08 21:30N 47°39' W 122°21'0 0.4
2018-Jan-08 21:00N 47°39' W 122°20'1 1.2
2018-Jan-08 20:30N 47°38' W 122°20'2 3.2
2018-Jan-08 20:00N 47°39' W 122°18'510.0
2018-Jan-08 19:30N 47°44' W 122°16'3 5.4
2018-Jan-08 19:00N 47°41' W 122°14'611.5
2018-Jan-08 18:30N 47°36' W 122°15'4 6.5
2018-Jan-08 17:54N 47°32' W 122°14'513.0
2018-Jan-08 17:31N 47°37' W 122°15'2 3.0
2018-Jan-08 17:00N 47°38' W 122°16'0 0.1
2018-Jan-08 16:30N 47°38' W 122°16'1 2.2
2018-Jan-08 15:59N 47°39' W 122°17'3 5.3
2018-Jan-08 15:31N 47°39' W 122°21'0 0.9
2018-Jan-08 15:01N 47°39' W 122°22'  
Track history (hours):
 
Tides and Currents Weather Stations Pressure Air Temp Water Temp Dewpoint Dewpoint Depression Visibility Wind Speed Wind Dir Waves Ship Positions

Soundguardian

Owner: King County Environmental Laboratory, Seattle, WA. More information available from US FCC via Universal Licensing System and Coast Guard Vessel Documentation Center.

Last reported at 2018-Jan-08 22:31 UTC. Time now 2018-Jan-18 00:06 UTC.
Position N 47°39' W 122°22'.
Warning: this ship's position is 9 days out of date.

Length 13 m; draft 1 m.

Type: Other ship. MMSI: 367741020.

Date/timePositionNaut miles runAvg speedWind from/ knotsBaromVisibWave heightAir tempDewpointWater temp
2018-Jan-08 22:31N 47°39' W 122°22'0 0.0
2018-Jan-08 22:30N 47°39' W 122°22'1 2.2
2018-Jan-08 22:00N 47°40' W 122°23'2 3.9
2018-Jan-08 21:30N 47°39' W 122°21'0 0.4
2018-Jan-08 21:00N 47°39' W 122°20'1 1.2
2018-Jan-08 20:30N 47°38' W 122°20'2 3.2
2018-Jan-08 20:00N 47°39' W 122°18'510.0
2018-Jan-08 19:30N 47°44' W 122°16'3 5.4
2018-Jan-08 19:00N 47°41' W 122°14'611.5
2018-Jan-08 18:30N 47°36' W 122°15'4 6.5
2018-Jan-08 17:54N 47°32' W 122°14'513.0
2018-Jan-08 17:31N 47°37' W 122°15'2 3.0
2018-Jan-08 17:00N 47°38' W 122°16'0 0.1
2018-Jan-08 16:30N 47°38' W 122°16'1 2.2
2018-Jan-08 15:59N 47°39' W 122°17'3 5.3
2018-Jan-08 15:31N 47°39' W 122°21'0 0.9
2018-Jan-08 15:01N 47°39' W 122°22'  

Dump ship's entire track history